createdAt,value
2019-04-23T00:00:26.499Z,30.90
2019-04-23T00:02:58.957Z,30.42
2019-04-23T00:08:07.863Z,29.89
2019-04-23T00:10:36.645Z,29.54
2019-04-23T00:12:59.388Z,30.82
2019-04-23T00:15:54.733Z,30.29
2019-04-23T00:18:23.388Z,30.79
2019-04-23T00:20:46.002Z,30.47
2019-04-23T00:23:22.500Z,30.65
2019-04-23T00:25:56.167Z,29.59
2019-04-23T00:28:22.978Z,30.59
2019-04-23T00:30:56.737Z,30.51
2019-04-23T00:33:25.637Z,29.97
2019-04-23T00:36:05.270Z,30.95
2019-04-23T00:41:04.247Z,30.21
2019-04-23T00:48:28.015Z,30.68
2019-04-23T00:50:53.069Z,30.95
2019-04-23T00:53:17.798Z,30.50
2019-04-23T00:55:47.846Z,30.72
2019-04-23T00:58:25.050Z,30.11
2019-04-23T01:00:56.132Z,30.77
2019-04-23T01:03:20.430Z,30.19
2019-04-23T01:05:47.052Z,30.63
2019-04-23T01:08:22.073Z,29.75
2019-04-23T01:13:36.737Z,30.57
2019-04-23T01:18:48.574Z,30.79
2019-04-23T01:20:54.073Z,30.96
2019-04-23T01:23:42.383Z,30.61
2019-04-23T01:26:23.934Z,30.09
2019-04-23T01:29:01.715Z,30.73
2019-04-23T01:31:34.846Z,30.67
2019-04-23T01:34:11.141Z,30.79
2019-04-23T01:39:17.772Z,30.87
2019-04-23T01:44:27.449Z,30.61
2019-04-23T01:46:49.271Z,30.91
2019-04-23T01:49:20.727Z,30.82
2019-04-23T01:54:23.621Z,30.64
2019-04-23T01:56:47.232Z,31.13
2019-04-23T02:01:50.075Z,31.17
2019-04-23T02:04:22.943Z,30.87
2019-04-23T02:06:55.981Z,31.00
2019-04-23T02:09:17.281Z,30.74
2019-04-23T02:11:53.602Z,31.04
2019-04-23T02:14:26.750Z,30.92
2019-04-23T02:16:50.279Z,31.05
2019-04-23T02:19:24.048Z,30.79
2019-04-23T02:24:49.253Z,31.06
2019-04-23T02:27:25.438Z,31.20
2019-04-23T02:32:52.573Z,31.44
2019-04-23T02:35:09.705Z,30.92
2019-04-23T02:37:36.395Z,30.68
2019-04-23T02:42:40.938Z,31.29
2019-04-23T02:44:56.402Z,30.66
2019-04-23T02:47:32.618Z,31.00
2019-04-23T02:50:33.201Z,31.31
2019-04-23T02:55:17.732Z,30.82
2019-04-23T02:57:41.516Z,31.18
2019-04-23T03:02:49.861Z,31.31
2019-04-23T03:07:49.616Z,30.31
2019-04-23T03:10:15.987Z,31.07
2019-04-23T03:16:01.006Z,30.56
2019-04-23T03:18:47.729Z,30.83
2019-04-23T03:21:51.966Z,31.41
2019-04-23T03:24:34.635Z,30.72
2019-04-23T03:27:12.867Z,31.12
2019-04-23T03:29:35.493Z,30.82
2019-04-23T03:39:30.211Z,31.36
2019-04-23T03:41:54.371Z,30.91
2019-04-23T03:44:29.786Z,31.28
2019-04-23T03:46:51.478Z,31.33
2019-04-23T03:49:19.490Z,31.20
2019-04-23T03:52:21.296Z,31.14
2019-04-23T03:54:45.698Z,31.28
2019-04-23T03:59:47.494Z,31.12
2019-04-23T04:04:36.654Z,31.09
2019-04-23T04:12:12.391Z,31.34
2019-04-23T04:14:47.418Z,31.37
2019-04-23T04:25:03.263Z,30.72
2019-04-23T04:27:43.459Z,31.70
2019-04-23T04:30:00.865Z,30.52
2019-04-23T04:32:33.448Z,31.25
2019-04-23T04:40:05.130Z,30.95
2019-04-23T04:47:44.498Z,31.71
2019-04-23T04:50:19.252Z,31.06
2019-04-23T04:55:23.578Z,31.05
2019-04-23T04:57:52.692Z,30.71
2019-04-23T05:03:12.607Z,31.18
2019-04-23T05:05:58.276Z,31.07
2019-04-23T05:07:48.214Z,30.91
2019-04-23T05:10:34.624Z,31.45
2019-04-23T05:13:35.292Z,31.67
2019-04-23T05:15:58.649Z,31.39
2019-04-23T05:21:26.909Z,31.28
2019-04-23T05:24:02.893Z,31.29
2019-04-23T05:26:25.172Z,31.44
2019-04-23T05:29:01.884Z,31.36
2019-04-23T05:31:24.742Z,30.62
2019-04-23T05:34:09.176Z,31.54
2019-04-23T05:36:45.415Z,31.76
2019-04-23T05:39:26.859Z,30.82
2019-04-23T05:46:48.639Z,31.74
2019-04-23T05:51:52.652Z,31.51
2019-04-23T05:54:24.361Z,31.09
2019-04-23T05:56:44.338Z,31.59
2019-04-23T06:01:54.128Z,31.52
2019-04-23T06:09:53.514Z,31.31
2019-04-23T06:17:21.075Z,31.36
2019-04-23T06:22:43.766Z,31.63
2019-04-23T06:25:21.527Z,31.50
2019-04-23T06:27:39.670Z,32.02
2019-04-23T06:30:08.750Z,32.15
2019-04-23T06:32:37.596Z,31.71
2019-04-23T06:35:12.008Z,31.65
2019-04-23T06:40:14.482Z,31.36
2019-04-23T06:43:06.058Z,31.37
2019-04-23T06:45:32.561Z,30.69
2019-04-23T06:48:09.172Z,31.62
2019-04-23T06:50:34.629Z,31.04
2019-04-23T06:52:58.872Z,30.76
2019-04-23T06:55:37.424Z,30.83
2019-04-23T06:58:08.369Z,31.69
2019-04-23T07:03:23.240Z,31.10
2019-04-23T07:13:53.424Z,30.45
2019-04-23T07:16:12.763Z,31.40
2019-04-23T07:18:41.215Z,31.49
2019-04-23T07:21:15.454Z,31.38
2019-04-23T07:23:45.426Z,31.57
2019-04-23T07:26:23.217Z,31.62
2019-04-23T07:31:35.196Z,31.75
2019-04-23T07:34:15.770Z,31.69
2019-04-23T07:36:47.844Z,31.75
2019-04-23T07:39:47.293Z,31.60
2019-04-23T07:45:02.123Z,31.85
2019-04-23T07:48:01.500Z,31.77
2019-04-23T07:50:32.875Z,31.94
2019-04-23T07:53:03.603Z,31.80
2019-04-23T07:55:25.568Z,31.58
2019-04-23T07:58:04.146Z,31.79
2019-04-23T08:00:32.466Z,31.84
2019-04-23T08:02:58.280Z,32.01
2019-04-23T08:05:22.503Z,32.03
2019-04-23T08:07:54.274Z,31.63
2019-04-23T08:16:07.034Z,31.88
2019-04-23T08:18:49.302Z,32.08
2019-04-23T08:21:06.764Z,32.21
2019-04-23T08:31:40.283Z,32.29
2019-04-23T08:34:17.069Z,32.24
2019-04-23T08:39:02.187Z,32.31
2019-04-23T08:41:46.022Z,32.06
2019-04-23T08:46:56.876Z,32.34
2019-04-23T08:52:05.473Z,32.28
2019-04-23T08:54:35.723Z,32.23
2019-04-23T08:56:57.087Z,32.09
2019-04-23T08:59:32.778Z,32.33
2019-04-23T09:02:07.209Z,32.17
2019-04-23T09:04:23.659Z,32.35
2019-04-23T09:06:57.149Z,32.55
2019-04-23T09:09:33.030Z,32.55
2019-04-23T09:14:08.925Z,32.40
2019-04-23T09:16:51.048Z,32.52
2019-04-23T09:19:28.511Z,32.43
2019-04-23T09:22:01.996Z,32.59
2019-04-23T09:24:20.041Z,32.41
2019-04-23T09:26:51.754Z,32.68
2019-04-23T09:29:30.534Z,32.66
2019-04-23T09:32:15.163Z,32.73
2019-04-23T09:34:54.136Z,32.68
2019-04-23T09:40:22.362Z,32.63
2019-04-23T09:43:00.469Z,32.46
2019-04-23T09:45:48.811Z,32.56
2019-04-23T09:48:11.595Z,32.51
2019-04-23T09:50:52.484Z,32.56
2019-04-23T09:55:59.740Z,32.42
2019-04-23T09:58:18.289Z,32.44
2019-04-23T10:03:43.081Z,32.43
2019-04-23T10:06:05.975Z,32.26
2019-04-23T10:08:35.542Z,32.33
2019-04-23T10:10:59.750Z,32.24
2019-04-23T10:13:29.680Z,32.31
2019-04-23T10:15:59.982Z,32.35
2019-04-23T10:21:16.006Z,32.53
2019-04-23T10:23:45.472Z,32.50
2019-04-23T10:26:14.263Z,32.49
2019-04-23T10:29:02.338Z,32.49
2019-04-23T10:31:31.444Z,32.39
2019-04-23T10:34:01.955Z,32.30
2019-04-23T10:36:32.111Z,32.34
2019-04-23T10:42:33.900Z,32.28
2019-04-23T10:55:25.290Z,32.42
2019-04-23T10:58:17.410Z,32.18
2019-04-23T11:03:31.806Z,32.24
2019-04-23T11:05:50.985Z,31.96
2019-04-23T11:08:15.688Z,32.28
2019-04-23T11:10:46.553Z,31.75
2019-04-23T11:18:45.018Z,31.95
2019-04-23T11:24:04.835Z,32.22
2019-04-23T11:26:44.342Z,32.57
2019-04-23T11:29:19.309Z,32.45
2019-04-23T11:34:25.792Z,32.61
2019-04-23T11:39:12.728Z,31.98
2019-04-23T11:49:52.521Z,32.36
2019-04-23T11:50:46.443Z,32.32
2019-04-23T11:52:08.313Z,32.41
2019-04-23T11:54:31.019Z,32.62
2019-04-23T11:59:35.868Z,32.55
2019-04-23T12:02:29.354Z,32.61
2019-04-23T12:07:57.454Z,32.33
2019-04-23T12:13:21.241Z,32.36
2019-04-23T12:15:46.368Z,32.53
2019-04-23T12:18:24.022Z,32.64
2019-04-23T12:20:49.084Z,32.67
2019-04-23T12:28:40.833Z,32.49
2019-04-23T12:31:10.095Z,32.59
2019-04-23T12:33:47.151Z,31.93
2019-04-23T12:36:34.025Z,32.45
2019-04-23T12:38:55.258Z,32.61
2019-04-23T12:41:27.118Z,32.60
2019-04-23T12:43:54.527Z,32.54
2019-04-23T12:46:26.003Z,32.62
2019-04-23T12:48:58.744Z,32.56
2019-04-23T12:51:29.809Z,32.53
2019-04-23T12:53:48.378Z,32.42
2019-04-23T12:56:30.284Z,32.71
2019-04-23T12:58:46.709Z,32.73
2019-04-23T13:01:25.674Z,32.72
2019-04-23T13:04:11.605Z,32.69
2019-04-23T13:06:36.529Z,32.63
2019-04-23T13:14:07.155Z,32.62
2019-04-23T13:19:27.425Z,32.77
2019-04-23T13:24:32.850Z,32.73
2019-04-23T13:29:50.808Z,32.77
2019-04-23T13:32:37.665Z,32.80
2019-04-23T13:35:19.843Z,32.60
2019-04-23T13:37:46.361Z,32.33
2019-04-23T13:40:09.180Z,32.72
2019-04-23T13:45:19.631Z,32.77
2019-04-23T13:47:46.758Z,32.77
2019-04-23T13:50:20.262Z,32.72
2019-04-23T13:57:59.361Z,32.91
2019-04-23T14:00:14.197Z,32.82
2019-04-23T14:02:52.665Z,32.79
2019-04-23T14:05:12.966Z,32.81
2019-04-23T14:07:50.042Z,32.84
2019-04-23T14:10:20.090Z,32.88
2019-04-23T14:13:03.404Z,33.05
2019-04-23T14:15:19.555Z,33.05
2019-04-23T14:18:02.901Z,33.04
2019-04-23T14:20:15.290Z,33.08
2019-04-23T14:25:15.952Z,32.71
2019-04-23T14:27:58.277Z,33.59
2019-04-23T14:30:20.180Z,33.17
2019-04-23T14:32:46.887Z,34.10
2019-04-23T14:38:01.917Z,33.89
2019-04-23T14:40:22.181Z,33.87
2019-04-23T14:45:31.256Z,32.27
2019-04-23T14:48:00.742Z,33.79
2019-04-23T14:50:34.912Z,33.77
2019-04-23T14:53:06.776Z,33.74
2019-04-23T14:58:14.981Z,33.64
2019-04-23T15:03:04.421Z,33.64
2019-04-23T15:05:25.757Z,33.63
2019-04-23T15:07:58.504Z,33.64
2019-04-23T15:13:03.330Z,33.58
2019-04-23T15:15:26.778Z,33.52
2019-04-23T15:17:59.699Z,32.49
2019-04-23T15:23:13.909Z,33.83
2019-04-23T15:25:36.962Z,33.92
2019-04-23T15:30:24.999Z,34.08
2019-04-23T15:33:11.684Z,34.16
2019-04-23T15:35:31.628Z,34.09
2019-04-23T15:40:25.310Z,34.25
2019-04-23T15:43:02.796Z,34.17
2019-04-23T15:45:21.042Z,34.45
2019-04-23T15:48:00.959Z,34.33
2019-04-23T15:50:28.335Z,34.42
2019-04-23T15:52:56.237Z,34.50
2019-04-23T15:55:20.835Z,34.60
2019-04-23T16:00:22.407Z,34.30
2019-04-23T16:02:26.196Z,34.76
2019-04-23T16:04:54.083Z,34.70
2019-04-23T16:07:43.544Z,34.36
2019-04-23T16:10:22.245Z,34.80
2019-04-23T16:12:53.197Z,34.65
2019-04-23T16:15:21.985Z,34.56
2019-04-23T16:18:04.047Z,34.12
2019-04-23T16:20:37.321Z,34.28
2019-04-23T16:22:57.751Z,34.33
2019-04-23T16:25:31.693Z,34.43
2019-04-23T16:28:02.208Z,34.30
2019-04-23T16:30:53.665Z,34.41
2019-04-23T16:33:08.870Z,34.41
2019-04-23T16:35:43.996Z,34.49
2019-04-23T16:40:37.506Z,34.68
2019-04-23T16:43:12.863Z,34.76
2019-04-23T16:45:37.110Z,34.77
2019-04-23T16:48:25.929Z,34.80
2019-04-23T16:50:56.199Z,34.83
2019-04-23T16:53:19.675Z,34.83
2019-04-23T16:58:23.204Z,34.75
2019-04-23T17:00:52.962Z,34.83
2019-04-23T17:05:46.565Z,34.94
2019-04-23T17:10:42.840Z,34.93
2019-04-23T17:13:24.158Z,34.94
2019-04-23T17:15:51.028Z,34.93
2019-04-23T17:18:11.640Z,34.96
2019-04-23T17:20:43.408Z,35.00
2019-04-23T17:23:16.873Z,35.04
2019-04-23T17:25:45.103Z,34.99
2019-04-23T17:28:17.315Z,34.99
2019-04-23T17:30:41.288Z,35.01
2019-04-23T17:33:18.862Z,35.07
2019-04-23T17:36:12.086Z,35.00
2019-04-23T17:38:37.920Z,35.02
2019-04-23T17:41:13.678Z,35.08
2019-04-23T17:43:47.060Z,35.03
2019-04-23T17:46:08.883Z,35.04
2019-04-23T17:48:34.665Z,35.08
2019-04-23T17:51:19.881Z,35.10
2019-04-23T17:53:43.018Z,34.88
2019-04-23T17:58:54.399Z,35.06
2019-04-23T18:06:23.555Z,34.66
2019-04-23T18:08:41.323Z,34.99
2019-04-23T18:11:17.993Z,34.45
2019-04-23T18:13:43.313Z,34.92
2019-04-23T18:18:45.036Z,34.84
2019-04-23T18:21:32.879Z,34.77
2019-04-23T18:24:23.058Z,34.66
2019-04-23T18:27:04.961Z,34.72
2019-04-23T18:29:42.060Z,34.49
2019-04-23T18:32:15.074Z,34.65
2019-04-23T18:34:56.259Z,34.63
2019-04-23T18:37:12.117Z,34.51
2019-04-23T18:39:42.114Z,34.53
2019-04-23T18:44:42.059Z,34.48
2019-04-23T18:47:07.554Z,34.40
2019-04-23T18:49:41.028Z,34.37
2019-04-23T18:52:04.709Z,34.10
2019-04-23T18:54:32.937Z,34.44
2019-04-23T19:02:26.084Z,34.25
2019-04-23T19:07:42.617Z,34.50
2019-04-23T19:10:28.826Z,34.42
2019-04-23T19:20:58.670Z,34.33
2019-04-23T19:23:13.678Z,34.26
2019-04-23T19:25:31.631Z,33.26
2019-04-23T19:28:24.150Z,35.75
2019-04-23T19:33:25.353Z,35.89
2019-04-23T19:38:21.389Z,35.24
2019-04-23T19:40:52.007Z,34.93
2019-04-23T19:43:15.255Z,35.11
2019-04-23T19:45:53.085Z,34.36
2019-04-23T19:48:17.453Z,34.66
2019-04-23T19:51:08.868Z,34.81
2019-04-23T19:54:06.086Z,33.97
2019-04-23T20:03:43.790Z,34.12
2019-04-23T20:06:13.542Z,34.76
2019-04-23T20:13:52.693Z,34.56
2019-04-23T20:16:21.183Z,34.35
2019-04-23T20:21:03.237Z,34.90
2019-04-23T20:36:49.330Z,34.58
2019-04-23T20:44:57.134Z,35.54
2019-04-23T20:52:08.870Z,35.39
2019-04-23T21:00:32.596Z,35.00
2019-04-23T21:03:25.823Z,35.23
2019-04-23T21:05:27.975Z,35.59
2019-04-23T21:08:12.244Z,35.36
2019-04-23T21:13:50.525Z,35.37
2019-04-23T21:15:58.245Z,34.86
2019-04-23T21:18:37.345Z,35.43
2019-04-23T21:20:56.898Z,35.58
2019-04-23T21:23:32.325Z,35.36
2019-04-23T21:26:07.940Z,35.18
2019-04-23T21:28:40.138Z,34.97
2019-04-23T21:31:06.542Z,35.37
2019-04-23T21:36:25.614Z,35.05
2019-04-23T21:39:15.382Z,34.51
2019-04-23T21:44:11.914Z,35.14
2019-04-23T21:49:31.956Z,34.60
2019-04-23T21:51:50.839Z,34.52
2019-04-23T21:54:04.938Z,34.69
2019-04-23T21:56:42.944Z,34.87
2019-04-23T22:06:59.680Z,34.35
2019-04-23T22:09:34.584Z,34.67
2019-04-23T22:12:03.902Z,34.61
2019-04-23T22:17:09.842Z,34.79
2019-04-23T22:19:42.169Z,34.82
2019-04-23T22:24:32.178Z,34.84
2019-04-23T22:27:02.857Z,34.78
2019-04-23T22:29:39.104Z,34.92
2019-04-23T22:31:58.242Z,34.67
2019-04-23T22:34:40.284Z,34.26
2019-04-23T22:37:11.095Z,34.68
2019-04-23T22:42:22.450Z,34.55
2019-04-23T22:44:51.545Z,34.52
2019-04-23T22:47:07.205Z,34.69
2019-04-23T22:52:22.438Z,34.41
2019-04-23T22:54:57.096Z,34.63
2019-04-23T22:57:50.292Z,34.35
2019-04-23T23:00:14.350Z,34.29
2019-04-23T23:02:58.332Z,34.41
2019-04-23T23:05:37.464Z,34.70
2019-04-23T23:08:01.484Z,35.23
2019-04-23T23:10:44.209Z,34.61
2019-04-23T23:13:04.087Z,34.53
2019-04-23T23:18:14.004Z,35.03
2019-04-23T23:20:47.927Z,35.12
2019-04-23T23:26:02.860Z,34.79
2019-04-23T23:35:44.427Z,35.05
2019-04-23T23:38:17.721Z,35.04
2019-04-23T23:40:47.185Z,34.97
2019-04-23T23:43:23.474Z,35.11
2019-04-23T23:48:12.787Z,34.90
2019-04-23T23:56:05.150Z,34.81
